createdAt,value
2023-05-07T00:00:52.406Z,99.90
2023-05-07T00:03:21.405Z,99.90
2023-05-07T00:05:49.919Z,99.90
2023-05-07T00:08:19.562Z,99.90
2023-05-07T00:10:47.723Z,99.90
2023-05-07T00:13:16.004Z,99.90
2023-05-07T00:15:44.394Z,99.90
2023-05-07T00:18:12.527Z,99.90
2023-05-07T00:20:40.790Z,99.90
2023-05-07T00:23:09.650Z,99.90
2023-05-07T00:25:39.322Z,99.90
2023-05-07T00:28:07.547Z,99.90
2023-05-07T00:30:35.789Z,99.90
2023-05-07T00:33:04.171Z,99.90
2023-05-07T00:35:32.338Z,99.90
2023-05-07T00:38:01.503Z,99.90
2023-05-07T00:40:30.246Z,99.90
2023-05-07T00:43:01.169Z,99.90
2023-05-07T00:45:31.169Z,99.90
2023-05-07T00:48:02.876Z,99.90
2023-05-07T00:50:32.052Z,99.90
2023-05-07T00:53:01.347Z,99.90
2023-05-07T00:55:30.003Z,99.90
2023-05-07T00:58:00.093Z,99.90
2023-05-07T01:00:29.141Z,99.90
2023-05-07T01:02:57.467Z,99.90
2023-05-07T01:05:27.792Z,99.90
2023-05-07T01:07:59.032Z,99.90
2023-05-07T01:10:27.630Z,99.90
2023-05-07T01:12:57.278Z,99.90
2023-05-07T01:15:27.538Z,99.90
2023-05-07T01:17:55.897Z,99.90
2023-05-07T01:20:25.440Z,99.90
2023-05-07T01:22:55.928Z,99.90
2023-05-07T01:25:24.384Z,99.90
2023-05-07T01:27:52.731Z,99.90
2023-05-07T01:30:22.758Z,99.90
2023-05-07T01:32:54.415Z,99.90
2023-05-07T01:35:26.974Z,99.90
2023-05-07T01:37:56.880Z,99.90
2023-05-07T01:40:26.574Z,99.90
2023-05-07T01:42:56.367Z,99.90
2023-05-07T01:45:25.290Z,99.90
2023-05-07T01:47:55.324Z,99.90
2023-05-07T01:50:23.936Z,99.90
2023-05-07T01:52:53.110Z,99.90
2023-05-07T01:55:22.741Z,99.90
2023-05-07T01:57:51.533Z,99.90
2023-05-07T02:00:20.560Z,99.90
2023-05-07T02:02:48.862Z,99.90
2023-05-07T02:05:17.715Z,99.90
2023-05-07T02:07:46.011Z,99.90
2023-05-07T02:10:14.223Z,99.90
2023-05-07T02:12:44.344Z,99.90
2023-05-07T02:15:13.057Z,99.90
2023-05-07T02:18:00.918Z,99.90
2023-05-07T02:20:29.936Z,99.90
2023-05-07T02:22:58.074Z,99.90
2023-05-07T02:25:26.319Z,99.90
2023-05-07T02:27:56.297Z,99.90
2023-05-07T02:30:24.830Z,99.90
2023-05-07T02:32:53.129Z,99.90
2023-05-07T02:35:21.406Z,99.90
2023-05-07T02:37:49.468Z,99.90
2023-05-07T02:40:17.653Z,99.90
2023-05-07T02:42:46.234Z,99.90
2023-05-07T02:45:15.863Z,99.90
2023-05-07T02:47:44.056Z,99.90
2023-05-07T02:50:13.567Z,99.90
2023-05-07T02:52:41.923Z,99.90
2023-05-07T02:55:10.938Z,99.90
2023-05-07T02:57:39.678Z,99.90
2023-05-07T03:00:17.232Z,99.90
2023-05-07T03:02:46.012Z,99.90
2023-05-07T03:05:16.956Z,99.90
2023-05-07T03:07:47.592Z,99.90
2023-05-07T03:10:16.153Z,99.90
2023-05-07T03:12:44.444Z,99.90
2023-05-07T03:15:13.886Z,99.90
2023-05-07T03:17:43.504Z,99.90
2023-05-07T03:20:13.212Z,99.90
2023-05-07T03:22:42.215Z,99.90
2023-05-07T03:25:11.551Z,99.90
2023-05-07T03:27:40.106Z,99.90
2023-05-07T03:30:09.966Z,99.90
2023-05-07T03:32:38.857Z,99.90
2023-05-07T03:35:09.154Z,99.90
2023-05-07T03:37:37.916Z,99.90
2023-05-07T03:40:07.381Z,99.90
2023-05-07T03:42:35.734Z,99.90
2023-05-07T03:45:04.116Z,99.90
2023-05-07T03:47:32.738Z,99.90
2023-05-07T03:50:00.942Z,99.90
2023-05-07T03:52:30.991Z,99.90
2023-05-07T03:54:59.586Z,99.90
2023-05-07T03:57:27.738Z,99.90
2023-05-07T03:59:56.563Z,99.90
2023-05-07T04:02:25.224Z,99.90
2023-05-07T04:04:54.142Z,99.90
2023-05-07T04:07:22.735Z,99.90
2023-05-07T04:09:52.401Z,99.90
2023-05-07T04:12:20.583Z,99.90
2023-05-07T04:14:48.941Z,99.90
2023-05-07T04:17:17.650Z,99.90
2023-05-07T04:19:46.746Z,99.90
2023-05-07T04:22:15.179Z,99.90
2023-05-07T04:24:43.348Z,99.90
2023-05-07T04:27:13.020Z,99.90
2023-05-07T04:29:43.465Z,99.90
2023-05-07T04:32:12.185Z,99.90
2023-05-07T04:34:40.439Z,99.90
2023-05-07T04:37:08.623Z,99.90
2023-05-07T04:39:37.359Z,99.90
2023-05-07T04:42:05.526Z,99.90
2023-05-07T04:44:35.804Z,99.90
2023-05-07T04:47:04.076Z,99.90
2023-05-07T04:49:32.291Z,99.90
2023-05-07T04:52:00.911Z,99.90
2023-05-07T04:54:29.520Z,99.90
2023-05-07T04:56:57.759Z,99.90
2023-05-07T04:59:26.564Z,99.90
2023-05-07T05:01:57.292Z,99.90
2023-05-07T05:04:25.605Z,99.90
2023-05-07T05:06:53.997Z,99.90
2023-05-07T05:09:22.578Z,99.90
2023-05-07T05:11:50.859Z,99.90
2023-05-07T05:14:19.090Z,99.90
2023-05-07T05:16:47.388Z,99.90
2023-05-07T05:19:17.419Z,99.90
2023-05-07T05:21:46.034Z,99.90
2023-05-07T05:24:14.801Z,99.90
2023-05-07T05:26:43.006Z,99.90
2023-05-07T05:29:11.507Z,99.90
2023-05-07T05:31:39.813Z,99.90
2023-05-07T05:34:08.032Z,99.90
2023-05-07T05:36:37.666Z,99.90
2023-05-07T05:39:06.295Z,99.90
2023-05-07T05:41:34.435Z,99.90
2023-05-07T05:44:02.684Z,99.90
2023-05-07T05:46:31.361Z,99.90
2023-05-07T05:48:59.567Z,99.90
2023-05-07T05:51:28.425Z,99.90
2023-05-07T05:53:58.453Z,99.90
2023-05-07T05:56:26.853Z,99.90
2023-05-07T05:58:55.462Z,99.90
2023-05-07T06:01:24.235Z,99.90
2023-05-07T06:03:52.458Z,99.90
2023-05-07T06:06:20.623Z,99.90
2023-05-07T06:08:49.373Z,99.90
2023-05-07T06:11:19.065Z,99.90
2023-05-07T06:13:47.638Z,99.90
2023-05-07T06:16:17.177Z,99.90
2023-05-07T06:18:46.469Z,99.90
2023-05-07T06:21:16.701Z,99.90
2023-05-07T06:23:44.913Z,99.90
2023-05-07T06:26:13.535Z,99.90
2023-05-07T06:28:43.270Z,99.90
2023-05-07T06:31:15.879Z,99.90
2023-05-07T06:33:45.089Z,99.90
2023-05-07T06:36:13.328Z,99.90
2023-05-07T06:38:41.866Z,99.90
2023-05-07T06:41:10.171Z,99.90
2023-05-07T06:43:38.663Z,99.90
2023-05-07T06:46:08.684Z,99.90
2023-05-07T06:48:36.883Z,99.90
2023-05-07T06:51:05.207Z,99.90
2023-05-07T06:53:33.543Z,99.90
2023-05-07T06:56:01.853Z,99.90
2023-05-07T06:58:30.062Z,99.90
2023-05-07T07:00:58.592Z,99.90
2023-05-07T07:03:28.615Z,99.90
2023-05-07T07:05:57.406Z,99.90
2023-05-07T07:08:25.638Z,99.90
2023-05-07T07:10:54.394Z,99.90
2023-05-07T07:13:23.174Z,99.90
2023-05-07T07:15:51.588Z,99.90
2023-05-07T07:18:19.818Z,99.90
2023-05-07T07:20:49.989Z,99.90
2023-05-07T07:23:18.276Z,99.90
2023-05-07T07:25:46.609Z,99.90
2023-05-07T07:28:15.068Z,99.90
2023-05-07T07:30:43.428Z,99.90
2023-05-07T07:33:12.030Z,99.90
2023-05-07T07:35:40.754Z,99.90
2023-05-07T07:38:10.278Z,99.90
2023-05-07T07:40:38.555Z,99.90
2023-05-07T07:43:07.160Z,99.90
2023-05-07T07:45:35.335Z,99.90
2023-05-07T07:48:03.792Z,99.90
2023-05-07T07:50:40.476Z,99.90
2023-05-07T07:53:13.728Z,99.90
2023-05-07T07:55:42.653Z,99.90
2023-05-07T07:58:10.888Z,99.90
2023-05-07T08:00:39.385Z,99.90
2023-05-07T08:03:08.511Z,99.90
2023-05-07T08:05:37.419Z,99.90
2023-05-07T08:08:06.929Z,99.90
2023-05-07T08:10:39.302Z,99.90
2023-05-07T08:13:08.183Z,99.90
2023-05-07T08:15:36.515Z,99.90
2023-05-07T08:18:04.975Z,99.90
2023-05-07T08:20:33.310Z,99.90
2023-05-07T08:23:01.573Z,99.90
2023-05-07T08:25:29.724Z,99.90
2023-05-07T08:27:59.320Z,99.90
2023-05-07T08:30:28.077Z,99.90
2023-05-07T08:32:56.352Z,99.90
2023-05-07T08:35:24.832Z,99.90
2023-05-07T08:37:53.203Z,99.90
2023-05-07T08:40:21.528Z,99.90
2023-05-07T08:42:53.916Z,99.90
2023-05-07T08:45:23.614Z,99.90
2023-05-07T08:47:57.073Z,99.90
2023-05-07T08:50:25.433Z,99.90
2023-05-07T08:52:53.717Z,99.90
2023-05-07T08:55:22.769Z,99.90
2023-05-07T08:57:51.059Z,99.90
2023-05-07T09:00:19.955Z,99.90
2023-05-07T09:02:50.109Z,99.90
2023-05-07T09:05:18.466Z,99.90
2023-05-07T09:07:47.438Z,99.90
2023-05-07T09:10:16.484Z,99.90
2023-05-07T09:12:44.643Z,99.90
2023-05-07T09:15:14.205Z,99.90
2023-05-07T09:17:43.572Z,99.90
2023-05-07T09:20:15.034Z,99.90
2023-05-07T09:22:43.794Z,99.90
2023-05-07T09:25:12.370Z,99.90
2023-05-07T09:27:40.811Z,99.90
2023-05-07T09:30:10.108Z,99.90
2023-05-07T09:32:40.275Z,99.90
2023-05-07T09:35:18.778Z,96.80
2023-05-07T09:37:47.910Z,95.20
2023-05-07T09:40:23.822Z,93.00
2023-05-07T09:42:52.396Z,90.40
2023-05-07T09:45:25.519Z,92.70
2023-05-07T09:47:58.070Z,94.30
2023-05-07T09:50:29.926Z,92.90
2023-05-07T09:52:59.753Z,96.40
2023-05-07T09:55:28.671Z,94.30
2023-05-07T09:57:57.241Z,92.20
2023-05-07T10:00:26.834Z,93.10
2023-05-07T10:02:57.101Z,93.40
2023-05-07T10:05:26.217Z,91.20
2023-05-07T10:07:56.736Z,91.30
2023-05-07T10:10:25.922Z,94.00
2023-05-07T10:12:55.086Z,92.10
2023-05-07T10:15:26.042Z,93.10
2023-05-07T10:17:55.636Z,90.60
2023-05-07T10:20:24.062Z,93.70
2023-05-07T10:22:54.354Z,94.10
2023-05-07T10:25:30.462Z,90.90
2023-05-07T10:28:02.060Z,90.50
2023-05-07T10:30:42.468Z,88.80
2023-05-07T10:33:14.399Z,90.00
2023-05-07T10:35:45.455Z,90.20
2023-05-07T10:38:14.569Z,88.10
2023-05-07T10:43:16.201Z,88.50
2023-05-07T10:45:44.496Z,90.00
2023-05-07T10:50:47.545Z,89.90
2023-05-07T10:53:29.672Z,88.70
2023-05-07T10:56:32.718Z,86.60
2023-05-07T10:59:35.364Z,82.30
2023-05-07T11:02:05.506Z,80.70
2023-05-07T11:04:36.040Z,81.40
2023-05-07T11:07:30.902Z,76.30
2023-05-07T11:10:08.902Z,84.30
2023-05-07T11:12:57.659Z,86.00
2023-05-07T11:15:44.391Z,77.00
2023-05-07T11:18:14.646Z,79.10
2023-05-07T11:21:04.352Z,84.10
2023-05-07T11:23:58.888Z,82.90
2023-05-07T11:26:27.957Z,86.10
2023-05-07T11:28:57.894Z,91.10
2023-05-07T11:31:29.928Z,82.20
2023-05-07T11:33:58.410Z,87.50
2023-05-07T11:36:27.186Z,86.00
2023-05-07T11:38:55.476Z,83.60
2023-05-07T11:41:23.775Z,86.60
2023-05-07T11:44:02.269Z,90.10
2023-05-07T11:46:31.309Z,90.30
2023-05-07T11:48:59.476Z,90.90
2023-05-07T11:51:28.241Z,88.60
2023-05-07T11:53:56.844Z,86.30
2023-05-07T11:56:25.601Z,90.00
2023-05-07T11:58:54.280Z,91.50
2023-05-07T12:01:24.242Z,90.80
2023-05-07T12:03:52.534Z,89.80
2023-05-07T12:06:22.412Z,90.60
2023-05-07T12:08:50.750Z,91.50
2023-05-07T12:11:26.290Z,90.10
2023-05-07T12:13:58.993Z,88.60
2023-05-07T12:16:30.097Z,90.70
2023-05-07T12:19:00.001Z,90.00
2023-05-07T12:21:28.224Z,90.50
2023-05-07T12:23:57.286Z,90.80
2023-05-07T12:26:26.237Z,91.30
2023-05-07T12:28:54.418Z,92.50
2023-05-07T12:31:23.105Z,91.80
2023-05-07T12:33:53.213Z,91.70
2023-05-07T12:36:22.257Z,92.50
2023-05-07T12:38:52.671Z,91.80
2023-05-07T12:41:26.716Z,93.40
2023-05-07T12:43:58.980Z,91.30
2023-05-07T12:46:27.365Z,92.30
2023-05-07T12:48:56.920Z,91.30
2023-05-07T12:51:25.567Z,92.10
2023-05-07T12:53:58.903Z,92.50
2023-05-07T12:56:27.129Z,92.00
2023-05-07T12:59:00.038Z,93.40
2023-05-07T13:01:32.224Z,92.50
2023-05-07T13:04:06.799Z,92.10
2023-05-07T13:06:35.742Z,92.90
2023-05-07T13:09:03.936Z,93.00
2023-05-07T13:11:32.326Z,93.20
2023-05-07T13:14:00.931Z,92.40
2023-05-07T13:16:29.333Z,92.50
2023-05-07T13:18:57.504Z,92.70
2023-05-07T13:21:27.935Z,92.80
2023-05-07T13:23:56.030Z,93.60
2023-05-07T13:26:27.065Z,93.00
2023-05-07T13:28:55.862Z,93.00
2023-05-07T13:31:24.735Z,91.60
2023-05-07T13:33:53.704Z,91.40
2023-05-07T13:36:22.024Z,92.70
2023-05-07T13:38:52.704Z,92.20
2023-05-07T13:41:21.100Z,92.10
2023-05-07T13:43:49.757Z,93.40
2023-05-07T13:46:18.751Z,92.30
2023-05-07T13:48:47.037Z,92.60
2023-05-07T13:51:15.926Z,92.00
2023-05-07T13:53:44.143Z,93.20
2023-05-07T13:56:13.705Z,92.20
2023-05-07T13:58:56.395Z,92.80
2023-05-07T14:01:28.894Z,92.10
2023-05-07T14:03:59.230Z,91.10
2023-05-07T14:06:27.626Z,90.50
2023-05-07T14:08:55.826Z,91.40
2023-05-07T14:11:25.446Z,91.80
2023-05-07T14:13:53.646Z,91.90
2023-05-07T14:16:22.305Z,92.80
2023-05-07T14:18:51.238Z,89.80
2023-05-07T14:21:19.530Z,90.20
2023-05-07T14:23:48.243Z,92.10
2023-05-07T14:26:16.881Z,92.90
2023-05-07T14:28:47.432Z,91.70
2023-05-07T14:31:15.928Z,92.10
2023-05-07T14:33:44.668Z,91.70
2023-05-07T14:36:12.836Z,90.20
2023-05-07T14:38:41.102Z,87.00
2023-05-07T14:41:09.679Z,86.70
2023-05-07T14:43:37.870Z,87.60
2023-05-07T14:46:07.680Z,87.80
2023-05-07T14:48:36.161Z,88.40
2023-05-07T14:51:04.416Z,87.90
2023-05-07T14:53:32.652Z,88.00
2023-05-07T14:56:01.222Z,89.60
2023-05-07T14:58:29.434Z,88.00
2023-05-07T15:00:57.724Z,89.70
2023-05-07T15:03:27.262Z,89.40
2023-05-07T15:05:55.666Z,87.50
2023-05-07T15:08:24.048Z,88.80
2023-05-07T15:10:52.708Z,90.10
2023-05-07T15:13:21.057Z,86.70
2023-05-07T15:15:50.410Z,84.40
2023-05-07T15:18:22.907Z,84.00
2023-05-07T15:20:52.810Z,87.40
2023-05-07T15:23:21.449Z,82.90
2023-05-07T15:25:52.176Z,82.50
2023-05-07T15:28:20.828Z,81.30
2023-05-07T15:30:49.730Z,78.10
2023-05-07T15:33:18.071Z,78.00
2023-05-07T15:35:46.535Z,77.30
2023-05-07T15:38:17.181Z,77.60
2023-05-07T15:40:45.626Z,78.60
2023-05-07T15:43:14.683Z,82.20
2023-05-07T15:45:44.371Z,78.70
2023-05-07T15:48:13.318Z,80.20
2023-05-07T15:50:42.077Z,79.20
2023-05-07T15:53:10.954Z,81.10
2023-05-07T15:55:40.842Z,84.30
2023-05-07T15:58:09.442Z,81.80
2023-05-07T16:00:37.981Z,85.30
2023-05-07T16:03:06.315Z,86.50
2023-05-07T16:05:34.641Z,88.50
2023-05-07T16:08:04.270Z,90.20
2023-05-07T16:10:32.731Z,91.60
2023-05-07T16:13:03.056Z,91.90
2023-05-07T16:15:31.347Z,91.90
2023-05-07T16:17:59.890Z,92.50
2023-05-07T16:20:30.897Z,91.60
2023-05-07T16:22:59.831Z,92.10
2023-05-07T16:25:28.110Z,91.90
2023-05-07T16:27:56.706Z,92.10
2023-05-07T16:30:26.738Z,92.20
2023-05-07T16:32:54.882Z,92.40
2023-05-07T16:35:23.293Z,92.30
2023-05-07T16:37:51.995Z,92.70
2023-05-07T16:40:20.331Z,92.80
2023-05-07T16:42:48.595Z,92.70
2023-05-07T16:45:17.576Z,92.80
2023-05-07T16:47:47.310Z,93.40
2023-05-07T16:50:15.661Z,94.20
2023-05-07T16:52:44.267Z,94.90
2023-05-07T16:55:12.744Z,95.00
2023-05-07T16:57:41.030Z,94.20
2023-05-07T17:00:11.893Z,94.40
2023-05-07T17:02:40.151Z,93.90
2023-05-07T17:05:11.334Z,94.30
2023-05-07T17:07:40.097Z,95.30
2023-05-07T17:10:09.190Z,94.00
2023-05-07T17:12:38.171Z,93.10
2023-05-07T17:15:07.629Z,93.50
2023-05-07T17:17:35.861Z,92.50
2023-05-07T17:20:05.902Z,93.00
2023-05-07T17:22:35.603Z,92.70
2023-05-07T17:25:04.388Z,92.90
2023-05-07T17:27:34.345Z,92.70
2023-05-07T17:30:03.185Z,93.20
2023-05-07T17:32:32.852Z,93.70
2023-05-07T17:35:00.960Z,93.30
2023-05-07T17:37:30.423Z,94.20
2023-05-07T17:39:59.955Z,94.40
2023-05-07T17:42:28.346Z,94.60
2023-05-07T17:44:56.883Z,94.70
2023-05-07T17:47:25.200Z,95.40
2023-05-07T17:49:53.458Z,95.60
2023-05-07T17:52:21.768Z,95.60
2023-05-07T17:54:49.906Z,96.00
2023-05-07T17:57:19.856Z,95.80
2023-05-07T17:59:48.656Z,96.10
2023-05-07T18:02:16.910Z,95.90
2023-05-07T18:04:45.614Z,96.20
2023-05-07T18:07:14.355Z,96.80
2023-05-07T18:09:42.592Z,97.40
2023-05-07T18:12:10.866Z,98.50
2023-05-07T18:14:41.052Z,98.70
2023-05-07T18:17:09.281Z,99.90
2023-05-07T18:19:37.861Z,99.90
2023-05-07T18:22:06.260Z,99.90
2023-05-07T18:24:34.977Z,99.90
2023-05-07T18:27:03.038Z,99.90
2023-05-07T18:29:31.338Z,99.90
2023-05-07T18:32:01.070Z,99.90
2023-05-07T18:34:29.238Z,99.90
2023-05-07T18:36:57.902Z,99.90
2023-05-07T18:39:26.280Z,99.90
2023-05-07T18:41:54.532Z,99.90
2023-05-07T18:44:22.731Z,99.90
2023-05-07T18:46:51.071Z,99.90
2023-05-07T18:49:20.664Z,99.90
2023-05-07T18:51:49.044Z,99.90
2023-05-07T18:54:17.192Z,99.90
2023-05-07T18:56:45.362Z,99.90
2023-05-07T18:59:13.640Z,99.90
2023-05-07T19:01:41.927Z,99.90
2023-05-07T19:04:10.711Z,99.90
2023-05-07T19:06:40.872Z,99.90
2023-05-07T19:09:09.614Z,99.90
2023-05-07T19:11:37.750Z,99.90
2023-05-07T19:14:06.738Z,99.90
2023-05-07T19:16:35.270Z,99.90
2023-05-07T19:19:03.580Z,99.90
2023-05-07T19:21:31.835Z,99.90
2023-05-07T19:24:01.524Z,99.90
2023-05-07T19:26:29.917Z,99.90
2023-05-07T19:29:12.224Z,99.90
2023-05-07T19:31:44.752Z,99.90
2023-05-07T19:34:14.421Z,99.90
2023-05-07T19:36:42.958Z,99.90
2023-05-07T19:39:12.617Z,99.90
2023-05-07T19:41:41.968Z,99.90
2023-05-07T19:44:10.319Z,99.90
2023-05-07T19:46:40.349Z,99.90
2023-05-07T19:49:11.197Z,99.90
2023-05-07T19:51:40.985Z,99.90
2023-05-07T19:54:09.368Z,99.90
2023-05-07T19:56:40.023Z,99.90
2023-05-07T19:59:08.325Z,99.90
2023-05-07T20:01:39.099Z,99.90
2023-05-07T20:04:07.740Z,99.90
2023-05-07T20:06:35.994Z,99.90
2023-05-07T20:09:04.829Z,99.90
2023-05-07T20:11:33.342Z,99.90
2023-05-07T20:14:04.562Z,99.90
2023-05-07T20:16:32.869Z,99.90
2023-05-07T20:19:01.153Z,99.90
2023-05-07T20:21:29.392Z,99.90
2023-05-07T20:23:58.257Z,99.90
2023-05-07T20:26:26.866Z,99.90
2023-05-07T20:28:55.134Z,99.90
2023-05-07T20:31:24.887Z,99.90
2023-05-07T20:33:53.728Z,99.90
2023-05-07T20:36:21.974Z,99.90
2023-05-07T20:38:50.248Z,99.90
2023-05-07T20:41:18.977Z,99.90
2023-05-07T20:43:47.789Z,99.90
2023-05-07T20:46:15.978Z,99.90
2023-05-07T20:48:45.688Z,99.90
2023-05-07T20:51:15.918Z,99.90
2023-05-07T20:53:47.320Z,99.90
2023-05-07T20:56:16.722Z,99.90
2023-05-07T20:58:44.947Z,99.90
2023-05-07T21:01:13.359Z,99.90
2023-05-07T21:03:42.191Z,99.90
2023-05-07T21:06:11.769Z,99.90
2023-05-07T21:08:39.957Z,99.90
2023-05-07T21:11:10.294Z,99.90
2023-05-07T21:13:38.419Z,99.90
2023-05-07T21:16:06.764Z,99.90
2023-05-07T21:18:35.222Z,99.90
2023-05-07T21:21:03.413Z,99.90
2023-05-07T21:23:32.931Z,99.90
2023-05-07T21:26:01.173Z,99.90
2023-05-07T21:28:29.447Z,99.90
2023-05-07T21:30:57.563Z,99.90
2023-05-07T21:33:25.914Z,99.90
2023-05-07T21:35:54.282Z,99.90
2023-05-07T21:38:22.371Z,99.90
2023-05-07T21:40:52.437Z,99.90
2023-05-07T21:43:20.780Z,99.90
2023-05-07T21:45:48.957Z,99.90
2023-05-07T21:48:21.923Z,99.90
2023-05-07T21:50:50.347Z,99.90
2023-05-07T21:53:18.686Z,99.90
2023-05-07T21:55:46.886Z,99.90
2023-05-07T21:58:16.426Z,99.90
2023-05-07T22:00:45.099Z,99.90
2023-05-07T22:03:13.474Z,99.90
2023-05-07T22:05:42.005Z,99.90
2023-05-07T22:08:10.707Z,99.90
2023-05-07T22:10:39.615Z,99.90
2023-05-07T22:13:07.887Z,99.90
2023-05-07T22:15:45.467Z,99.90
2023-05-07T22:18:21.770Z,99.90
2023-05-07T22:20:52.555Z,99.90
2023-05-07T22:23:20.695Z,99.90
2023-05-07T22:25:49.082Z,99.90
2023-05-07T22:28:17.539Z,99.90
2023-05-07T22:30:47.215Z,99.90
2023-05-07T22:33:15.600Z,99.90
2023-05-07T22:35:43.873Z,99.90
2023-05-07T22:38:12.118Z,99.90
2023-05-07T22:40:40.284Z,99.90
2023-05-07T22:43:08.464Z,99.90
2023-05-07T22:45:36.818Z,99.90
2023-05-07T22:48:07.448Z,99.90
2023-05-07T22:50:38.741Z,99.90
2023-05-07T22:53:07.844Z,99.90
2023-05-07T22:55:36.484Z,99.90
2023-05-07T22:58:04.878Z,99.90
2023-05-07T23:00:33.120Z,99.90
2023-05-07T23:03:01.599Z,99.90
2023-05-07T23:05:31.363Z,99.90
2023-05-07T23:07:59.583Z,99.90
2023-05-07T23:10:27.899Z,99.90
2023-05-07T23:12:56.209Z,99.90
2023-05-07T23:15:24.653Z,99.90
2023-05-07T23:17:52.931Z,99.90
2023-05-07T23:20:21.432Z,99.90
2023-05-07T23:22:51.029Z,99.90
2023-05-07T23:25:19.434Z,99.90
2023-05-07T23:27:50.008Z,99.90
2023-05-07T23:30:18.428Z,99.90
2023-05-07T23:32:46.712Z,99.90
2023-05-07T23:35:15.144Z,99.90
2023-05-07T23:37:43.423Z,99.90
2023-05-07T23:40:13.784Z,99.90
2023-05-07T23:42:42.213Z,99.90
2023-05-07T23:45:11.314Z,99.90
2023-05-07T23:47:40.151Z,99.90
2023-05-07T23:50:09.391Z,99.90
2023-05-07T23:52:37.664Z,99.90
2023-05-07T23:55:06.480Z,99.90
2023-05-07T23:57:36.582Z,99.90
